Pace, Mississippi
Current Conditions -  °F | °C
As of 12:35 PM on Monday 20 Oct 2014 (Local Time) from KRNV Reporting Station
Clear Clear  
Wind Chill: 69°   Ceiling: Unl
Heat Index: 69°   Visibility: 10mi
Dew Point: 51°   Wind: 0mph
Humidity: 52%   Direction: NA
Pressure: 30.08"   Gusts: NA
Location:  33.79°N, 90.86°W
Report Text: KRNV 201735Z AUTO 00000KT 10SM CLR 21/10 A3008 RMK AO2 T02050104
Loading
Personal Weather Stations






























Interactive Weather Map
Tropical Storm Tracking
New forecast layout! Learn more

10-Day Weather Forecast

Advertisements
Track Severe Weather on mobile